createdAt,value
2024-01-19T00:00:52.340Z,79.78
2024-01-19T00:03:19.267Z,80.04
2024-01-19T00:05:46.567Z,79.71
2024-01-19T00:08:13.707Z,79.81
2024-01-19T00:10:40.663Z,79.95
2024-01-19T00:13:07.736Z,80.10
2024-01-19T00:15:41.942Z,79.74
2024-01-19T00:18:10.883Z,80.02
2024-01-19T00:20:38.376Z,79.91
2024-01-19T00:23:05.791Z,80.22
2024-01-19T00:25:32.761Z,79.97
2024-01-19T00:27:59.528Z,80.21
2024-01-19T00:30:26.574Z,80.11
2024-01-19T00:32:53.622Z,79.92
2024-01-19T00:35:22.019Z,80.06
2024-01-19T00:37:49.337Z,79.64
2024-01-19T00:40:16.654Z,79.76
2024-01-19T00:42:44.465Z,79.77
2024-01-19T00:45:12.250Z,79.84
2024-01-19T00:47:39.605Z,79.88
2024-01-19T00:50:08.935Z,80.27
2024-01-19T00:52:36.526Z,79.74
2024-01-19T00:55:03.643Z,79.87
2024-01-19T00:57:30.566Z,80.07
2024-01-19T00:59:57.833Z,80.07
2024-01-19T01:02:28.430Z,80.01
2024-01-19T01:04:56.632Z,79.52
2024-01-19T01:07:24.427Z,79.93
2024-01-19T01:09:51.457Z,80.19
2024-01-19T01:12:18.388Z,79.91
2024-01-19T01:14:45.868Z,80.27
2024-01-19T01:17:29.481Z,80.16
2024-01-19T01:19:56.779Z,80.00
2024-01-19T01:22:23.945Z,80.30
2024-01-19T01:24:50.855Z,79.92
2024-01-19T01:27:17.946Z,80.03
2024-01-19T01:29:44.981Z,79.64
2024-01-19T01:32:12.519Z,80.09
2024-01-19T01:34:40.256Z,80.06
2024-01-19T01:37:07.634Z,80.35
2024-01-19T01:39:34.572Z,80.35
2024-01-19T01:42:01.486Z,80.14
2024-01-19T01:44:28.554Z,80.12
2024-01-19T01:46:55.517Z,79.95
2024-01-19T01:49:22.602Z,80.85
2024-01-19T01:51:49.848Z,80.42
2024-01-19T01:54:16.811Z,80.56
2024-01-19T01:56:43.964Z,80.20
2024-01-19T01:59:11.315Z,80.20
2024-01-19T02:01:38.346Z,80.24
2024-01-19T02:04:09.413Z,80.42
2024-01-19T02:06:36.794Z,80.62
2024-01-19T02:09:04.287Z,80.43
2024-01-19T02:11:31.199Z,80.55
2024-01-19T02:13:58.182Z,80.51
2024-01-19T02:16:25.359Z,80.33
2024-01-19T02:18:55.911Z,80.77
2024-01-19T02:21:23.091Z,80.31
2024-01-19T02:24:04.349Z,80.47
2024-01-19T02:26:36.264Z,80.38
2024-01-19T02:29:03.291Z,80.52
2024-01-19T02:31:30.169Z,80.42
2024-01-19T02:33:57.394Z,80.33
2024-01-19T02:36:24.445Z,80.23
2024-01-19T02:38:51.740Z,80.73
2024-01-19T02:41:19.114Z,80.45
2024-01-19T02:43:46.062Z,80.74
2024-01-19T02:46:15.547Z,80.47
2024-01-19T02:48:42.636Z,80.77
2024-01-19T02:51:09.593Z,80.64
2024-01-19T02:53:36.735Z,80.48
2024-01-19T02:56:03.915Z,80.92
2024-01-19T02:58:30.817Z,80.26
2024-01-19T03:00:57.774Z,80.60
2024-01-19T03:03:25.095Z,81.00
2024-01-19T03:05:52.122Z,80.28
2024-01-19T03:08:19.498Z,80.88
2024-01-19T03:10:46.393Z,80.42
2024-01-19T03:13:13.371Z,80.76
2024-01-19T03:15:40.266Z,80.49
2024-01-19T03:18:07.571Z,80.79
2024-01-19T03:20:34.590Z,80.66
2024-01-19T03:23:01.831Z,80.66
2024-01-19T03:25:28.829Z,80.66
2024-01-19T03:27:55.637Z,80.45
2024-01-19T03:30:22.603Z,80.87
2024-01-19T03:32:49.896Z,80.69
2024-01-19T03:35:19.063Z,80.82
2024-01-19T03:37:46.175Z,80.92
2024-01-19T03:40:13.313Z,80.51
2024-01-19T03:42:40.201Z,80.47
2024-01-19T03:45:07.957Z,80.99
2024-01-19T03:47:35.317Z,80.58
2024-01-19T03:50:03.932Z,80.54
2024-01-19T03:52:30.947Z,80.92
2024-01-19T03:54:57.914Z,80.81
2024-01-19T03:57:24.899Z,80.71
2024-01-19T03:59:51.836Z,80.90
2024-01-19T04:02:19.140Z,80.92
2024-01-19T04:04:46.142Z,80.89
2024-01-19T04:07:14.220Z,80.87
2024-01-19T04:09:41.986Z,80.74
2024-01-19T04:12:16.886Z,80.64
2024-01-19T04:14:45.445Z,80.98
2024-01-19T04:17:13.048Z,81.10
2024-01-19T04:19:41.408Z,80.67
2024-01-19T04:22:08.599Z,80.56
2024-01-19T04:24:35.526Z,80.75
2024-01-19T04:27:02.500Z,80.84
2024-01-19T04:29:29.627Z,80.60
2024-01-19T04:31:57.459Z,80.66
2024-01-19T04:34:24.412Z,80.87
2024-01-19T04:36:51.473Z,80.96
2024-01-19T04:39:18.477Z,80.78
2024-01-19T04:41:45.368Z,80.81
2024-01-19T04:44:12.468Z,80.90
2024-01-19T04:46:41.879Z,80.95
2024-01-19T04:49:10.267Z,80.74
2024-01-19T04:51:37.734Z,80.72
2024-01-19T04:54:04.868Z,80.90
2024-01-19T04:56:31.920Z,80.76
2024-01-19T04:59:00.076Z,80.84
2024-01-19T05:01:27.229Z,80.54
2024-01-19T05:03:54.108Z,80.86
2024-01-19T05:06:21.415Z,80.92
2024-01-19T05:08:48.526Z,80.84
2024-01-19T05:11:15.967Z,81.16
2024-01-19T05:13:43.170Z,80.85
2024-01-19T05:16:11.400Z,81.08
2024-01-19T05:18:39.632Z,81.21
2024-01-19T05:21:07.580Z,80.79
2024-01-19T05:23:34.729Z,81.02
2024-01-19T05:26:06.014Z,80.77
2024-01-19T05:28:35.017Z,81.04
2024-01-19T05:31:02.032Z,80.81
2024-01-19T05:33:29.110Z,80.82
2024-01-19T05:35:56.194Z,81.20
2024-01-19T05:38:23.941Z,81.18
2024-01-19T05:40:50.974Z,81.19
2024-01-19T05:43:17.794Z,80.99
2024-01-19T05:45:44.766Z,80.93
2024-01-19T05:48:11.921Z,81.17
2024-01-19T05:50:39.455Z,80.88
2024-01-19T05:53:06.466Z,80.77
2024-01-19T05:55:33.402Z,81.11
2024-01-19T05:58:00.346Z,80.80
2024-01-19T06:00:27.250Z,81.01
2024-01-19T06:02:54.266Z,80.68
2024-01-19T06:05:21.341Z,80.91
2024-01-19T06:07:48.373Z,80.66
2024-01-19T06:10:15.436Z,81.42
2024-01-19T06:12:42.346Z,81.25
2024-01-19T06:15:09.308Z,80.85
2024-01-19T06:17:36.558Z,81.05
2024-01-19T06:20:04.105Z,81.24
2024-01-19T06:22:31.208Z,81.19
2024-01-19T06:24:58.267Z,81.20
2024-01-19T06:27:25.201Z,81.26
2024-01-19T06:29:52.391Z,81.08
2024-01-19T06:32:19.462Z,81.05
2024-01-19T06:34:46.353Z,81.19
2024-01-19T06:37:13.378Z,81.01
2024-01-19T06:39:40.248Z,80.97
2024-01-19T06:42:07.427Z,81.00
2024-01-19T06:44:34.446Z,81.02
2024-01-19T06:47:01.325Z,81.17
2024-01-19T06:49:28.683Z,81.02
2024-01-19T06:51:55.681Z,80.99
2024-01-19T06:54:22.763Z,81.32
2024-01-19T06:56:49.883Z,81.22
2024-01-19T06:59:16.898Z,81.15
2024-01-19T07:01:43.777Z,81.52
2024-01-19T07:04:10.823Z,81.02
2024-01-19T07:06:37.862Z,81.33
2024-01-19T07:09:05.526Z,80.96
2024-01-19T07:11:32.732Z,81.14
2024-01-19T07:13:59.881Z,80.66
2024-01-19T07:16:26.873Z,81.22
2024-01-19T07:18:54.046Z,80.99
2024-01-19T07:21:21.614Z,81.42
2024-01-19T07:23:48.506Z,81.39
2024-01-19T07:26:20.217Z,81.27
2024-01-19T07:28:46.946Z,80.81
2024-01-19T07:31:13.922Z,81.49
2024-01-19T07:33:41.102Z,80.82
2024-01-19T07:36:08.487Z,81.00
2024-01-19T07:38:35.501Z,81.19
2024-01-19T07:41:02.934Z,80.99
2024-01-19T07:43:29.830Z,81.14
2024-01-19T07:45:56.983Z,81.28
2024-01-19T07:48:25.427Z,80.79
2024-01-19T07:50:54.236Z,81.04
2024-01-19T07:53:21.240Z,80.73
2024-01-19T07:55:48.321Z,81.27
2024-01-19T07:58:15.342Z,81.01
2024-01-19T08:00:42.304Z,81.00
2024-01-19T08:03:09.686Z,80.92
2024-01-19T08:05:36.796Z,81.01
2024-01-19T08:08:04.180Z,81.08
2024-01-19T08:10:35.956Z,80.82
2024-01-19T08:13:03.737Z,80.92
2024-01-19T08:15:30.971Z,80.87
2024-01-19T08:17:57.989Z,80.71
2024-01-19T08:20:25.818Z,80.53
2024-01-19T08:22:56.541Z,80.91
2024-01-19T08:25:23.591Z,80.53
2024-01-19T08:27:50.586Z,80.79
2024-01-19T08:30:17.678Z,80.63
2024-01-19T08:32:44.609Z,80.77
2024-01-19T08:35:11.921Z,80.57
2024-01-19T08:37:40.581Z,80.61
2024-01-19T08:40:09.324Z,81.05
2024-01-19T08:42:36.474Z,80.85
2024-01-19T08:45:04.005Z,80.67
2024-01-19T08:47:31.257Z,80.59
2024-01-19T08:49:59.128Z,80.54
2024-01-19T08:52:26.121Z,80.52
2024-01-19T08:54:53.111Z,80.59
2024-01-19T08:57:20.248Z,80.84
2024-01-19T08:59:47.317Z,80.56
2024-01-19T09:02:14.226Z,80.72
2024-01-19T09:04:41.219Z,80.80
2024-01-19T09:07:08.375Z,80.57
2024-01-19T09:09:35.357Z,80.57
2024-01-19T09:12:02.494Z,80.73
2024-01-19T09:14:29.451Z,80.54
2024-01-19T09:16:56.428Z,80.34
2024-01-19T09:19:23.430Z,80.64
2024-01-19T09:21:52.106Z,80.39
2024-01-19T09:24:19.150Z,80.30
2024-01-19T09:26:46.044Z,80.52
2024-01-19T09:29:13.066Z,80.34
2024-01-19T09:31:44.339Z,80.41
2024-01-19T09:34:11.608Z,80.16
2024-01-19T09:36:42.054Z,80.12
2024-01-19T09:39:09.532Z,80.26
2024-01-19T09:42:01.151Z,80.13
2024-01-19T09:44:36.058Z,80.06
2024-01-19T09:47:23.644Z,80.22
2024-01-19T09:50:04.525Z,80.06
2024-01-19T09:52:50.025Z,79.93
2024-01-19T09:55:17.236Z,80.02
2024-01-19T09:57:47.233Z,79.85
2024-01-19T10:00:19.140Z,79.89
2024-01-19T10:02:50.730Z,79.88
2024-01-19T10:05:19.062Z,79.78
2024-01-19T10:07:50.968Z,79.74
2024-01-19T10:10:17.909Z,79.85
2024-01-19T10:12:45.127Z,79.83
2024-01-19T10:15:14.199Z,79.65
2024-01-19T10:17:46.506Z,79.62
2024-01-19T10:20:17.884Z,79.59
2024-01-19T10:22:45.041Z,79.53
2024-01-19T10:25:14.230Z,79.68
2024-01-19T10:28:01.118Z,79.59
2024-01-19T10:30:30.392Z,79.88
2024-01-19T10:33:06.792Z,79.71
2024-01-19T10:35:35.881Z,79.75
2024-01-19T10:38:05.992Z,79.66
2024-01-19T10:40:34.832Z,79.67
2024-01-19T10:43:01.872Z,79.63
2024-01-19T10:45:31.026Z,79.68
2024-01-19T10:48:00.696Z,79.61
2024-01-19T10:50:29.694Z,79.83
2024-01-19T10:52:59.548Z,79.72
2024-01-19T10:55:29.880Z,79.84
2024-01-19T10:58:12.970Z,79.74
2024-01-19T11:00:40.237Z,79.77
2024-01-19T11:03:07.871Z,79.66
2024-01-19T11:05:35.976Z,79.63
2024-01-19T11:08:04.222Z,79.73
2024-01-19T11:10:32.640Z,79.74
2024-01-19T11:13:03.439Z,79.72
2024-01-19T11:15:35.788Z,79.53
2024-01-19T11:18:06.313Z,79.62
2024-01-19T11:20:34.602Z,79.81
2024-01-19T11:23:03.056Z,79.75
2024-01-19T11:26:02.531Z,79.57
2024-01-19T11:28:57.492Z,79.56
2024-01-19T11:31:33.711Z,79.63
2024-01-19T11:34:00.918Z,79.42
2024-01-19T11:36:48.615Z,79.65
2024-01-19T11:39:40.127Z,79.53
2024-01-19T11:42:08.598Z,79.28
2024-01-19T11:44:47.012Z,79.29
2024-01-19T11:47:40.058Z,79.20
2024-01-19T11:50:08.345Z,79.37
2024-01-19T11:52:40.494Z,79.11
2024-01-19T11:55:35.368Z,79.17
2024-01-19T11:58:26.243Z,79.00
2024-01-19T12:00:55.753Z,78.92
2024-01-19T12:03:23.195Z,79.00
2024-01-19T12:05:51.534Z,78.77
2024-01-19T12:08:18.714Z,78.65
2024-01-19T12:10:45.752Z,79.20
2024-01-19T12:13:16.156Z,79.00
2024-01-19T12:15:44.857Z,78.88
2024-01-19T12:18:12.116Z,78.87
2024-01-19T12:20:39.007Z,78.63
2024-01-19T12:23:06.015Z,78.72
2024-01-19T12:25:33.201Z,78.72
2024-01-19T12:28:08.438Z,78.42
2024-01-19T12:30:37.773Z,78.49
2024-01-19T12:33:19.605Z,78.53
2024-01-19T12:35:47.404Z,78.42
2024-01-19T12:40:46.115Z,78.71
2024-01-19T12:43:13.855Z,78.44
2024-01-19T12:48:18.704Z,78.30
2024-01-19T12:50:52.421Z,78.15
2024-01-19T12:53:19.372Z,78.44
2024-01-19T12:55:47.470Z,78.47
2024-01-19T12:58:22.606Z,78.22
2024-01-19T13:00:50.573Z,78.27
2024-01-19T13:03:22.168Z,78.07
2024-01-19T13:05:49.138Z,78.42
2024-01-19T13:08:19.920Z,78.31
2024-01-19T13:10:47.004Z,78.19
2024-01-19T13:13:18.977Z,78.12
2024-01-19T13:15:46.194Z,78.13
2024-01-19T13:18:16.689Z,77.97
2024-01-19T13:20:44.237Z,78.05
2024-01-19T13:23:11.607Z,77.89
2024-01-19T13:25:39.412Z,78.04
2024-01-19T13:28:07.456Z,78.01
2024-01-19T13:30:34.488Z,78.04
2024-01-19T13:33:04.939Z,77.93
2024-01-19T13:35:31.959Z,78.04
2024-01-19T13:37:59.138Z,78.06
2024-01-19T13:40:26.224Z,77.91
2024-01-19T13:42:53.462Z,77.89
2024-01-19T13:45:20.676Z,77.98
2024-01-19T13:47:51.840Z,77.77
2024-01-19T13:50:18.885Z,78.02
2024-01-19T13:52:46.491Z,77.80
2024-01-19T13:55:15.365Z,77.64
2024-01-19T13:57:42.464Z,77.79
2024-01-19T14:00:09.995Z,77.65
2024-01-19T14:02:37.196Z,77.76
2024-01-19T14:05:05.879Z,77.69
2024-01-19T14:07:33.427Z,77.55
2024-01-19T14:10:00.531Z,77.74
2024-01-19T14:12:28.060Z,77.58
2024-01-19T14:14:55.455Z,77.57
2024-01-19T14:17:24.362Z,77.69
2024-01-19T14:19:51.620Z,77.62
2024-01-19T14:22:18.863Z,77.67
2024-01-19T14:24:45.879Z,77.62
2024-01-19T14:27:12.770Z,77.43
2024-01-19T14:29:39.833Z,77.51
2024-01-19T14:32:07.211Z,77.52
2024-01-19T14:34:39.821Z,77.56
2024-01-19T14:37:13.625Z,77.53
2024-01-19T14:39:41.386Z,77.56
2024-01-19T14:42:09.381Z,77.33
2024-01-19T14:44:36.582Z,77.53
2024-01-19T14:47:05.001Z,77.20
2024-01-19T14:49:37.305Z,77.44
2024-01-19T14:52:08.915Z,77.49
2024-01-19T14:54:36.496Z,77.38
2024-01-19T14:57:03.972Z,77.42
2024-01-19T14:59:31.053Z,77.41
2024-01-19T15:01:58.439Z,77.22
2024-01-19T15:04:26.017Z,77.36
2024-01-19T15:06:53.217Z,77.43
2024-01-19T15:09:20.169Z,77.26
2024-01-19T15:11:47.240Z,77.53
2024-01-19T15:14:14.495Z,77.38
2024-01-19T15:16:42.285Z,77.34
2024-01-19T15:19:09.519Z,77.46
2024-01-19T15:21:36.590Z,77.54
2024-01-19T15:24:07.756Z,77.42
2024-01-19T15:26:35.657Z,77.33
2024-01-19T15:29:03.006Z,77.44
2024-01-19T15:31:30.235Z,77.40
2024-01-19T15:33:57.747Z,77.29
2024-01-19T15:36:24.887Z,77.28
2024-01-19T15:38:51.947Z,77.53
2024-01-19T15:41:24.314Z,77.31
2024-01-19T15:43:51.427Z,77.47
2024-01-19T15:46:25.209Z,77.51
2024-01-19T15:49:03.062Z,77.57
2024-01-19T15:51:34.413Z,77.71
2024-01-19T15:54:01.567Z,77.59
2024-01-19T15:56:36.727Z,77.64
2024-01-19T15:59:06.984Z,77.70
2024-01-19T16:01:34.045Z,77.79
2024-01-19T16:04:03.380Z,77.66
2024-01-19T16:06:32.125Z,77.59
2024-01-19T16:08:59.363Z,77.60
2024-01-19T16:11:26.388Z,77.63
2024-01-19T16:13:53.405Z,77.72
2024-01-19T16:16:20.479Z,77.64
2024-01-19T16:18:47.368Z,77.77
2024-01-19T16:21:18.800Z,77.92
2024-01-19T16:23:46.720Z,77.75
2024-01-19T16:26:14.018Z,78.04
2024-01-19T16:28:48.564Z,77.75
2024-01-19T16:31:16.939Z,77.84
2024-01-19T16:33:46.011Z,77.94
2024-01-19T16:36:14.678Z,77.92
2024-01-19T16:38:43.888Z,77.74
2024-01-19T16:41:11.885Z,77.90
2024-01-19T16:43:39.744Z,77.89
2024-01-19T16:46:06.959Z,77.68
2024-01-19T16:48:34.221Z,78.00
2024-01-19T16:51:04.345Z,77.85
2024-01-19T16:53:31.678Z,78.00
2024-01-19T16:55:59.722Z,77.96
2024-01-19T16:58:26.891Z,78.04
2024-01-19T17:00:53.967Z,77.88
2024-01-19T17:03:21.893Z,78.10
2024-01-19T17:05:48.953Z,77.87
2024-01-19T17:08:16.097Z,77.83
2024-01-19T17:10:43.443Z,78.18
2024-01-19T17:13:10.761Z,77.85
2024-01-19T17:15:38.889Z,77.90
2024-01-19T17:18:06.573Z,77.91
2024-01-19T17:20:34.263Z,77.89
2024-01-19T17:25:28.646Z,78.10
2024-01-19T17:27:56.005Z,77.99
2024-01-19T17:30:25.387Z,77.79
2024-01-19T17:32:54.552Z,78.23
2024-01-19T17:35:26.175Z,77.86
2024-01-19T17:57:53.385Z,78.36
2024-01-19T18:00:20.560Z,78.31
2024-01-19T18:02:47.787Z,78.38
2024-01-19T18:05:15.545Z,78.24
2024-01-19T18:07:42.759Z,78.35
2024-01-19T18:10:10.256Z,78.27
2024-01-19T18:12:38.385Z,78.50
2024-01-19T18:15:12.202Z,78.46
2024-01-19T18:17:44.354Z,78.54
2024-01-19T18:20:14.849Z,78.18
2024-01-19T18:22:43.190Z,78.57
2024-01-19T18:25:10.945Z,78.40
2024-01-19T18:27:38.273Z,78.64
2024-01-19T18:30:07.206Z,78.43
2024-01-19T18:32:35.830Z,78.70
2024-01-19T18:35:04.470Z,78.42
2024-01-19T18:37:35.858Z,78.84
2024-01-19T18:40:05.834Z,78.63
2024-01-19T18:42:34.510Z,78.45
2024-01-19T18:45:07.628Z,79.18
2024-01-19T18:47:35.073Z,78.78
2024-01-19T18:50:03.540Z,78.88
2024-01-19T18:52:32.485Z,79.07
2024-01-19T18:55:00.689Z,79.09
2024-01-19T18:57:29.536Z,78.96
2024-01-19T19:00:00.649Z,79.09
2024-01-19T19:02:28.410Z,79.22
2024-01-19T19:04:57.085Z,79.22
2024-01-19T19:07:31.027Z,79.35
2024-01-19T19:10:10.869Z,79.38
2024-01-19T19:12:41.391Z,79.26
2024-01-19T19:15:09.600Z,79.61
2024-01-19T19:17:41.700Z,79.53
2024-01-19T19:20:12.241Z,79.92
2024-01-19T19:22:39.823Z,79.60
2024-01-19T19:25:07.948Z,79.68
2024-01-19T19:27:35.595Z,80.06
2024-01-19T19:30:07.001Z,79.79
2024-01-19T19:32:35.222Z,79.63
2024-01-19T19:35:03.948Z,79.82
2024-01-19T19:37:35.446Z,79.84
2024-01-19T19:40:10.793Z,80.38
2024-01-19T19:42:39.141Z,79.99
2024-01-19T19:45:09.800Z,80.10
2024-01-19T19:47:37.397Z,80.41
2024-01-19T19:50:06.088Z,80.14
2024-01-19T19:52:34.947Z,80.23
2024-01-19T19:55:05.839Z,80.31
2024-01-19T19:57:34.128Z,80.15
2024-01-19T20:00:01.729Z,80.25
2024-01-19T20:02:28.802Z,80.59
2024-01-19T20:04:55.933Z,80.46
2024-01-19T20:07:23.140Z,80.44
2024-01-19T20:09:50.106Z,80.52
2024-01-19T20:12:16.987Z,80.80
2024-01-19T20:14:43.943Z,80.52
2024-01-19T20:17:11.494Z,80.71
2024-01-19T20:19:38.613Z,80.48
2024-01-19T20:22:05.671Z,80.71
2024-01-19T20:24:32.738Z,80.90
2024-01-19T20:27:01.374Z,80.79
2024-01-19T20:29:28.529Z,80.91
2024-01-19T20:31:56.904Z,80.74
2024-01-19T20:34:26.571Z,81.13
2024-01-19T20:36:53.731Z,80.77
2024-01-19T20:39:22.350Z,80.88
2024-01-19T20:41:51.131Z,81.00
2024-01-19T20:44:20.476Z,80.86
2024-01-19T20:46:48.387Z,81.00
2024-01-19T20:49:16.962Z,80.94
2024-01-19T20:51:44.653Z,81.05
2024-01-19T20:54:13.338Z,81.14
2024-01-19T20:56:40.552Z,81.01
2024-01-19T20:59:08.275Z,81.19
2024-01-19T21:01:35.313Z,81.05
2024-01-19T21:04:02.642Z,81.19
2024-01-19T21:06:31.532Z,81.36
2024-01-19T21:09:00.727Z,81.22
2024-01-19T21:11:28.424Z,81.46
2024-01-19T21:13:56.110Z,81.57
2024-01-19T21:16:24.458Z,81.29
2024-01-19T21:18:54.052Z,81.45
2024-01-19T21:21:24.482Z,81.38
2024-01-19T21:23:54.854Z,81.40
2024-01-19T21:26:25.445Z,81.35
2024-01-19T21:28:53.575Z,81.28
2024-01-19T21:31:20.784Z,81.33
2024-01-19T21:33:49.338Z,81.56
2024-01-19T21:36:20.464Z,81.51
2024-01-19T21:38:52.235Z,81.50
2024-01-19T21:41:23.006Z,81.55
2024-01-19T21:43:51.374Z,81.60
2024-01-19T21:46:18.880Z,81.51
2024-01-19T21:48:45.918Z,81.77
2024-01-19T21:51:16.295Z,81.46
2024-01-19T21:53:45.296Z,81.77
2024-01-19T21:56:13.140Z,81.65
2024-01-19T21:58:40.358Z,81.54
2024-01-19T22:01:15.906Z,81.79
2024-01-19T22:03:47.253Z,81.73
2024-01-19T22:06:15.904Z,81.79
2024-01-19T22:08:43.517Z,81.72
2024-01-19T22:11:11.024Z,81.74
2024-01-19T22:13:38.352Z,81.73
2024-01-19T22:16:07.278Z,81.76
2024-01-19T22:18:38.250Z,82.04
2024-01-19T22:21:06.296Z,81.95
2024-01-19T22:23:35.325Z,81.83
2024-01-19T22:26:02.501Z,81.95
2024-01-19T22:28:35.410Z,81.78
2024-01-19T22:31:04.279Z,81.89
2024-01-19T22:33:33.164Z,81.76
2024-01-19T22:36:04.394Z,81.83
2024-01-19T22:38:42.600Z,81.86
2024-01-19T22:41:10.249Z,82.09
2024-01-19T22:43:38.262Z,81.89
2024-01-19T22:46:05.302Z,81.85
2024-01-19T22:48:32.416Z,82.02
2024-01-19T22:50:59.941Z,81.78
2024-01-19T22:53:26.820Z,82.02
2024-01-19T22:55:54.159Z,81.96
2024-01-19T22:58:21.236Z,82.01
2024-01-19T23:00:48.345Z,82.01
2024-01-19T23:03:15.277Z,82.23
2024-01-19T23:05:42.785Z,82.16
2024-01-19T23:08:09.798Z,82.07
2024-01-19T23:10:36.862Z,82.01
2024-01-19T23:13:04.437Z,82.01
2024-01-19T23:15:32.205Z,82.19
2024-01-19T23:17:59.518Z,82.31
2024-01-19T23:20:26.799Z,82.12
2024-01-19T23:22:54.117Z,81.93
2024-01-19T23:25:27.329Z,82.20
2024-01-19T23:28:00.377Z,82.19
2024-01-19T23:30:27.471Z,82.43
2024-01-19T23:32:54.483Z,82.27
2024-01-19T23:35:21.748Z,82.48
2024-01-19T23:37:48.921Z,82.29
2024-01-19T23:40:16.487Z,82.33
2024-01-19T23:42:43.857Z,82.27
2024-01-19T23:45:11.101Z,82.44
2024-01-19T23:47:38.071Z,82.42
2024-01-19T23:50:06.234Z,82.44
2024-01-19T23:52:33.238Z,82.30
2024-01-19T23:55:00.250Z,82.63
2024-01-19T23:57:27.154Z,82.49
2024-01-19T23:59:54.079Z,82.53
